sensor_id;sensor_type;location;lat;lon;timestamp;P1;durP1;ratioP1;P2;durP2;ratioP2
47772;SDS011;33534;51.028;13.716;2023-05-29T00:00:33;9.93;;;6.25;;
47772;SDS011;33534;51.028;13.716;2023-05-29T00:02:59;9.52;;;5.97;;
47772;SDS011;33534;51.028;13.716;2023-05-29T00:05:26;10.55;;;6.47;;
47772;SDS011;33534;51.028;13.716;2023-05-29T00:07:52;7.80;;;5.63;;
47772;SDS011;33534;51.028;13.716;2023-05-29T00:10:18;9.63;;;5.88;;
47772;SDS011;33534;51.028;13.716;2023-05-29T00:12:44;9.07;;;5.70;;
47772;SDS011;33534;51.028;13.716;2023-05-29T00:15:10;11.48;;;6.28;;
47772;SDS011;33534;51.028;13.716;2023-05-29T00:17:37;9.88;;;5.72;;
47772;SDS011;33534;51.028;13.716;2023-05-29T00:20:05;9.48;;;6.18;;
47772;SDS011;33534;51.028;13.716;2023-05-29T00:22:35;6.43;;;4.97;;
47772;SDS011;33534;51.028;13.716;2023-05-29T00:25:04;6.90;;;5.15;;
47772;SDS011;33534;51.028;13.716;2023-05-29T00:27:31;9.27;;;6.00;;
47772;SDS011;33534;51.028;13.716;2023-05-29T00:30:00;9.18;;;5.68;;
47772;SDS011;33534;51.028;13.716;2023-05-29T00:32:26;9.77;;;5.57;;
47772;SDS011;33534;51.028;13.716;2023-05-29T00:34:53;9.13;;;5.55;;
47772;SDS011;33534;51.028;13.716;2023-05-29T00:37:19;9.73;;;5.70;;
47772;SDS011;33534;51.028;13.716;2023-05-29T00:39:46;8.50;;;5.22;;
47772;SDS011;33534;51.028;13.716;2023-05-29T00:42:12;9.15;;;5.50;;
47772;SDS011;33534;51.028;13.716;2023-05-29T00:44:38;9.40;;;5.63;;
47772;SDS011;33534;51.028;13.716;2023-05-29T00:47:04;11.18;;;5.47;;
47772;SDS011;33534;51.028;13.716;2023-05-29T00:49:31;7.60;;;5.43;;
47772;SDS011;33534;51.028;13.716;2023-05-29T00:51:57;9.52;;;5.55;;
47772;SDS011;33534;51.028;13.716;2023-05-29T00:54:26;9.43;;;5.47;;
47772;SDS011;33534;51.028;13.716;2023-05-29T00:56:52;10.00;;;6.65;;
47772;SDS011;33534;51.028;13.716;2023-05-29T00:59:19;10.30;;;5.75;;
47772;SDS011;33534;51.028;13.716;2023-05-29T01:01:46;8.02;;;5.82;;
47772;SDS011;33534;51.028;13.716;2023-05-29T01:04:13;10.05;;;5.50;;
47772;SDS011;33534;51.028;13.716;2023-05-29T01:06:41;8.77;;;5.80;;
47772;SDS011;33534;51.028;13.716;2023-05-29T01:09:07;9.00;;;5.22;;
47772;SDS011;33534;51.028;13.716;2023-05-29T01:11:41;6.85;;;5.03;;
47772;SDS011;33534;51.028;13.716;2023-05-29T01:14:14;7.85;;;5.50;;
47772;SDS011;33534;51.028;13.716;2023-05-29T01:16:55;9.23;;;5.20;;
47772;SDS011;33534;51.028;13.716;2023-05-29T01:19:34;7.55;;;4.72;;
47772;SDS011;33534;51.028;13.716;2023-05-29T01:27:07;8.20;;;5.35;;
47772;SDS011;33534;51.028;13.716;2023-05-29T01:29:39;7.85;;;4.93;;
47772;SDS011;33534;51.028;13.716;2023-05-29T01:32:07;9.63;;;5.78;;
47772;SDS011;33534;51.028;13.716;2023-05-29T01:34:33;13.93;;;6.03;;
47772;SDS011;33534;51.028;13.716;2023-05-29T01:36:59;13.27;;;5.75;;
47772;SDS011;33534;51.028;13.716;2023-05-29T01:39:25;10.57;;;5.68;;
47772;SDS011;33534;51.028;13.716;2023-05-29T01:41:52;8.07;;;5.43;;
47772;SDS011;33534;51.028;13.716;2023-05-29T01:44:18;6.68;;;4.82;;
47772;SDS011;33534;51.028;13.716;2023-05-29T01:46:45;9.65;;;5.22;;
47772;SDS011;33534;51.028;13.716;2023-05-29T01:49:12;9.95;;;5.03;;
47772;SDS011;33534;51.028;13.716;2023-05-29T01:51:39;5.75;;;4.55;;
47772;SDS011;33534;51.028;13.716;2023-05-29T01:54:05;9.57;;;4.78;;
47772;SDS011;33534;51.028;13.716;2023-05-29T01:56:32;7.57;;;5.20;;
47772;SDS011;33534;51.028;13.716;2023-05-29T01:58:58;8.10;;;4.78;;
47772;SDS011;33534;51.028;13.716;2023-05-29T02:01:26;5.88;;;4.40;;
47772;SDS011;33534;51.028;13.716;2023-05-29T02:03:52;9.00;;;4.65;;
47772;SDS011;33534;51.028;13.716;2023-05-29T02:06:18;8.73;;;5.32;;
47772;SDS011;33534;51.028;13.716;2023-05-29T02:08:45;7.82;;;4.47;;
47772;SDS011;33534;51.028;13.716;2023-05-29T02:11:11;6.50;;;4.57;;
47772;SDS011;33534;51.028;13.716;2023-05-29T02:13:37;6.05;;;4.07;;
47772;SDS011;33534;51.028;13.716;2023-05-29T02:16:03;8.55;;;5.55;;
47772;SDS011;33534;51.028;13.716;2023-05-29T02:18:29;8.48;;;4.40;;
47772;SDS011;33534;51.028;13.716;2023-05-29T02:20:56;10.77;;;5.32;;
47772;SDS011;33534;51.028;13.716;2023-05-29T02:23:22;10.20;;;4.93;;
47772;SDS011;33534;51.028;13.716;2023-05-29T02:25:48;6.32;;;4.53;;
47772;SDS011;33534;51.028;13.716;2023-05-29T02:28:14;8.18;;;4.90;;
47772;SDS011;33534;51.028;13.716;2023-05-29T02:30:40;7.22;;;4.85;;
47772;SDS011;33534;51.028;13.716;2023-05-29T02:33:06;6.88;;;4.60;;
47772;SDS011;33534;51.028;13.716;2023-05-29T02:35:32;9.30;;;5.03;;
47772;SDS011;33534;51.028;13.716;2023-05-29T02:37:58;10.40;;;4.82;;
47772;SDS011;33534;51.028;13.716;2023-05-29T02:40:24;6.93;;;4.50;;
47772;SDS011;33534;51.028;13.716;2023-05-29T02:42:50;9.15;;;4.88;;
47772;SDS011;33534;51.028;13.716;2023-05-29T02:45:16;8.50;;;4.70;;
47772;SDS011;33534;51.028;13.716;2023-05-29T02:47:42;8.00;;;4.65;;
47772;SDS011;33534;51.028;13.716;2023-05-29T02:50:08;7.70;;;4.47;;
47772;SDS011;33534;51.028;13.716;2023-05-29T02:52:35;8.25;;;4.30;;
47772;SDS011;33534;51.028;13.716;2023-05-29T02:55:04;7.22;;;4.35;;
47772;SDS011;33534;51.028;13.716;2023-05-29T02:57:31;5.90;;;4.20;;
47772;SDS011;33534;51.028;13.716;2023-05-29T02:59:57;5.45;;;4.15;;
47772;SDS011;33534;51.028;13.716;2023-05-29T03:02:24;6.18;;;4.45;;
47772;SDS011;33534;51.028;13.716;2023-05-29T03:04:50;8.32;;;4.85;;
47772;SDS011;33534;51.028;13.716;2023-05-29T03:07:17;8.23;;;4.50;;
47772;SDS011;33534;51.028;13.716;2023-05-29T03:09:43;5.47;;;4.22;;
47772;SDS011;33534;51.028;13.716;2023-05-29T03:12:09;8.55;;;4.68;;
47772;SDS011;33534;51.028;13.716;2023-05-29T03:14:36;6.18;;;4.72;;
47772;SDS011;33534;51.028;13.716;2023-05-29T03:17:05;7.28;;;4.30;;
47772;SDS011;33534;51.028;13.716;2023-05-29T03:19:32;8.07;;;4.80;;
47772;SDS011;33534;51.028;13.716;2023-05-29T03:21:58;10.50;;;5.00;;
47772;SDS011;33534;51.028;13.716;2023-05-29T03:24:24;10.82;;;4.43;;
47772;SDS011;33534;51.028;13.716;2023-05-29T03:26:50;7.45;;;4.70;;
47772;SDS011;33534;51.028;13.716;2023-05-29T03:29:16;7.45;;;4.35;;
47772;SDS011;33534;51.028;13.716;2023-05-29T03:31:42;6.45;;;4.50;;
47772;SDS011;33534;51.028;13.716;2023-05-29T03:34:08;8.27;;;4.82;;
47772;SDS011;33534;51.028;13.716;2023-05-29T03:36:35;9.45;;;5.03;;
47772;SDS011;33534;51.028;13.716;2023-05-29T03:39:03;7.03;;;4.50;;
47772;SDS011;33534;51.028;13.716;2023-05-29T03:41:29;7.90;;;4.50;;
47772;SDS011;33534;51.028;13.716;2023-05-29T03:43:55;7.13;;;5.50;;
47772;SDS011;33534;51.028;13.716;2023-05-29T03:46:21;8.48;;;5.15;;
47772;SDS011;33534;51.028;13.716;2023-05-29T03:48:48;5.57;;;4.32;;
47772;SDS011;33534;51.028;13.716;2023-05-29T03:51:14;5.80;;;4.43;;
47772;SDS011;33534;51.028;13.716;2023-05-29T03:53:40;6.50;;;4.13;;
47772;SDS011;33534;51.028;13.716;2023-05-29T03:56:06;6.50;;;3.97;;
47772;SDS011;33534;51.028;13.716;2023-05-29T03:58:32;7.03;;;4.70;;
47772;SDS011;33534;51.028;13.716;2023-05-29T04:00:58;9.32;;;3.83;;
47772;SDS011;33534;51.028;13.716;2023-05-29T04:03:24;6.88;;;4.82;;
47772;SDS011;33534;51.028;13.716;2023-05-29T04:05:50;7.32;;;4.28;;
47772;SDS011;33534;51.028;13.716;2023-05-29T04:08:16;5.90;;;3.50;;
47772;SDS011;33534;51.028;13.716;2023-05-29T04:10:42;5.80;;;3.80;;
47772;SDS011;33534;51.028;13.716;2023-05-29T04:13:09;4.35;;;3.22;;
47772;SDS011;33534;51.028;13.716;2023-05-29T04:15:35;4.60;;;3.47;;
47772;SDS011;33534;51.028;13.716;2023-05-29T04:18:01;4.72;;;3.28;;
47772;SDS011;33534;51.028;13.716;2023-05-29T04:20:27;6.07;;;3.40;;
47772;SDS011;33534;51.028;13.716;2023-05-29T04:22:53;4.15;;;3.20;;
47772;SDS011;33534;51.028;13.716;2023-05-29T04:25:19;4.75;;;3.22;;
47772;SDS011;33534;51.028;13.716;2023-05-29T04:27:45;5.68;;;3.33;;
47772;SDS011;33534;51.028;13.716;2023-05-29T04:30:14;4.50;;;3.60;;
47772;SDS011;33534;51.028;13.716;2023-05-29T04:32:40;5.80;;;3.33;;
47772;SDS011;33534;51.028;13.716;2023-05-29T04:35:06;5.15;;;3.45;;
47772;SDS011;33534;51.028;13.716;2023-05-29T04:37:33;4.25;;;3.03;;
47772;SDS011;33534;51.028;13.716;2023-05-29T04:40:04;6.07;;;3.22;;
47772;SDS011;33534;51.028;13.716;2023-05-29T04:42:38;4.40;;;3.38;;
47772;SDS011;33534;51.028;13.716;2023-05-29T04:45:07;5.00;;;3.17;;
47772;SDS011;33534;51.028;13.716;2023-05-29T04:47:35;4.28;;;3.10;;
47772;SDS011;33534;51.028;13.716;2023-05-29T04:50:08;4.60;;;3.25;;
47772;SDS011;33534;51.028;13.716;2023-05-29T04:52:36;6.05;;;3.25;;
47772;SDS011;33534;51.028;13.716;2023-05-29T04:55:02;4.47;;;2.88;;
47772;SDS011;33534;51.028;13.716;2023-05-29T04:57:28;4.68;;;3.00;;
47772;SDS011;33534;51.028;13.716;2023-05-29T04:59:54;4.68;;;2.88;;
47772;SDS011;33534;51.028;13.716;2023-05-29T05:02:19;5.10;;;2.67;;
47772;SDS011;33534;51.028;13.716;2023-05-29T05:04:45;4.25;;;2.50;;
47772;SDS011;33534;51.028;13.716;2023-05-29T05:07:11;7.80;;;3.15;;
47772;SDS011;33534;51.028;13.716;2023-05-29T05:09:36;5.65;;;2.88;;
47772;SDS011;33534;51.028;13.716;2023-05-29T05:12:02;4.35;;;2.60;;
47772;SDS011;33534;51.028;13.716;2023-05-29T05:14:28;5.63;;;2.88;;
47772;SDS011;33534;51.028;13.716;2023-05-29T05:16:54;2.90;;;2.58;;
47772;SDS011;33534;51.028;13.716;2023-05-29T05:19:19;5.18;;;2.78;;
47772;SDS011;33534;51.028;13.716;2023-05-29T05:21:45;3.30;;;2.90;;
47772;SDS011;33534;51.028;13.716;2023-05-29T05:24:11;4.63;;;3.05;;
47772;SDS011;33534;51.028;13.716;2023-05-29T05:26:37;3.63;;;2.50;;
47772;SDS011;33534;51.028;13.716;2023-05-29T05:29:02;3.67;;;3.15;;
47772;SDS011;33534;51.028;13.716;2023-05-29T05:31:28;6.43;;;2.88;;
47772;SDS011;33534;51.028;13.716;2023-05-29T05:33:53;7.72;;;3.00;;
47772;SDS011;33534;51.028;13.716;2023-05-29T05:36:19;7.10;;;3.25;;
47772;SDS011;33534;51.028;13.716;2023-05-29T05:38:45;7.57;;;3.28;;
47772;SDS011;33534;51.028;13.716;2023-05-29T05:41:10;5.53;;;3.28;;
47772;SDS011;33534;51.028;13.716;2023-05-29T05:43:36;3.67;;;2.78;;
47772;SDS011;33534;51.028;13.716;2023-05-29T05:46:02;7.03;;;3.00;;
47772;SDS011;33534;51.028;13.716;2023-05-29T05:48:27;5.63;;;3.13;;
47772;SDS011;33534;51.028;13.716;2023-05-29T05:50:53;4.50;;;2.75;;
47772;SDS011;33534;51.028;13.716;2023-05-29T05:53:18;5.57;;;3.13;;
47772;SDS011;33534;51.028;13.716;2023-05-29T05:55:46;4.80;;;3.35;;
47772;SDS011;33534;51.028;13.716;2023-05-29T05:58:11;4.03;;;3.00;;
47772;SDS011;33534;51.028;13.716;2023-05-29T06:00:37;6.50;;;3.17;;
47772;SDS011;33534;51.028;13.716;2023-05-29T06:03:04;7.47;;;4.05;;
47772;SDS011;33534;51.028;13.716;2023-05-29T06:05:29;4.18;;;3.50;;
47772;SDS011;33534;51.028;13.716;2023-05-29T06:07:55;4.72;;;3.53;;
47772;SDS011;33534;51.028;13.716;2023-05-29T06:10:21;4.60;;;3.53;;
47772;SDS011;33534;51.028;13.716;2023-05-29T06:12:46;8.95;;;4.38;;
47772;SDS011;33534;51.028;13.716;2023-05-29T06:15:12;8.70;;;3.50;;
47772;SDS011;33534;51.028;13.716;2023-05-29T06:17:38;7.53;;;3.97;;
47772;SDS011;33534;51.028;13.716;2023-05-29T06:20:04;5.50;;;4.07;;
47772;SDS011;33534;51.028;13.716;2023-05-29T06:22:35;5.15;;;3.97;;
47772;SDS011;33534;51.028;13.716;2023-05-29T06:25:01;8.98;;;4.40;;
47772;SDS011;33534;51.028;13.716;2023-05-29T06:27:26;7.30;;;4.57;;
47772;SDS011;33534;51.028;13.716;2023-05-29T06:29:52;5.90;;;4.00;;
47772;SDS011;33534;51.028;13.716;2023-05-29T06:32:17;6.47;;;3.85;;
47772;SDS011;33534;51.028;13.716;2023-05-29T06:34:43;5.38;;;4.13;;
47772;SDS011;33534;51.028;13.716;2023-05-29T06:37:09;5.38;;;3.83;;
47772;SDS011;33534;51.028;13.716;2023-05-29T06:39:35;6.20;;;4.07;;
47772;SDS011;33534;51.028;13.716;2023-05-29T06:42:00;5.28;;;3.42;;
47772;SDS011;33534;51.028;13.716;2023-05-29T06:44:26;5.20;;;3.92;;
47772;SDS011;33534;51.028;13.716;2023-05-29T06:46:52;5.72;;;3.13;;
47772;SDS011;33534;51.028;13.716;2023-05-29T06:49:18;3.47;;;3.08;;
47772;SDS011;33534;51.028;13.716;2023-05-29T06:51:46;3.67;;;3.25;;
47772;SDS011;33534;51.028;13.716;2023-05-29T06:54:15;5.95;;;3.60;;
47772;SDS011;33534;51.028;13.716;2023-05-29T06:56:41;4.50;;;3.53;;
47772;SDS011;33534;51.028;13.716;2023-05-29T06:59:07;4.82;;;3.47;;
47772;SDS011;33534;51.028;13.716;2023-05-29T07:01:32;7.68;;;3.08;;
47772;SDS011;33534;51.028;13.716;2023-05-29T07:03:58;6.32;;;3.70;;
47772;SDS011;33534;51.028;13.716;2023-05-29T07:06:24;6.63;;;3.95;;
47772;SDS011;33534;51.028;13.716;2023-05-29T07:08:50;5.68;;;3.80;;
47772;SDS011;33534;51.028;13.716;2023-05-29T07:11:15;5.95;;;3.65;;
47772;SDS011;33534;51.028;13.716;2023-05-29T07:13:41;7.10;;;4.10;;
47772;SDS011;33534;51.028;13.716;2023-05-29T07:16:06;4.60;;;3.40;;
47772;SDS011;33534;51.028;13.716;2023-05-29T07:18:32;5.35;;;3.83;;
47772;SDS011;33534;51.028;13.716;2023-05-29T07:20:59;6.63;;;3.20;;
47772;SDS011;33534;51.028;13.716;2023-05-29T07:23:25;5.95;;;3.75;;
47772;SDS011;33534;51.028;13.716;2023-05-29T07:25:51;9.18;;;3.95;;
47772;SDS011;33534;51.028;13.716;2023-05-29T07:28:16;4.88;;;3.65;;
47772;SDS011;33534;51.028;13.716;2023-05-29T07:30:42;6.38;;;3.67;;
47772;SDS011;33534;51.028;13.716;2023-05-29T07:33:10;5.00;;;3.92;;
47772;SDS011;33534;51.028;13.716;2023-05-29T07:35:35;5.63;;;3.22;;
47772;SDS011;33534;51.028;13.716;2023-05-29T07:38:01;4.80;;;3.95;;
47772;SDS011;33534;51.028;13.716;2023-05-29T07:40:26;4.93;;;3.00;;
47772;SDS011;33534;51.028;13.716;2023-05-29T07:42:52;4.95;;;3.50;;
47772;SDS011;33534;51.028;13.716;2023-05-29T07:45:18;8.57;;;3.55;;
47772;SDS011;33534;51.028;13.716;2023-05-29T07:47:43;4.55;;;3.60;;
47772;SDS011;33534;51.028;13.716;2023-05-29T07:50:09;6.82;;;3.67;;
47772;SDS011;33534;51.028;13.716;2023-05-29T07:52:35;4.95;;;3.70;;
47772;SDS011;33534;51.028;13.716;2023-05-29T07:55:01;8.00;;;3.40;;
47772;SDS011;33534;51.028;13.716;2023-05-29T07:57:27;7.18;;;3.65;;
47772;SDS011;33534;51.028;13.716;2023-05-29T07:59:53;6.03;;;3.80;;
47772;SDS011;33534;51.028;13.716;2023-05-29T08:02:19;6.28;;;3.35;;
47772;SDS011;33534;51.028;13.716;2023-05-29T08:04:45;5.40;;;3.20;;
47772;SDS011;33534;51.028;13.716;2023-05-29T08:07:12;5.32;;;3.50;;
47772;SDS011;33534;51.028;13.716;2023-05-29T08:09:37;5.32;;;3.15;;
47772;SDS011;33534;51.028;13.716;2023-05-29T08:12:03;7.05;;;3.42;;
47772;SDS011;33534;51.028;13.716;2023-05-29T08:14:30;7.00;;;3.15;;
47772;SDS011;33534;51.028;13.716;2023-05-29T08:16:56;8.05;;;3.70;;
47772;SDS011;33534;51.028;13.716;2023-05-29T08:19:22;4.93;;;3.50;;
47772;SDS011;33534;51.028;13.716;2023-05-29T08:21:48;4.80;;;3.22;;
47772;SDS011;33534;51.028;13.716;2023-05-29T08:24:14;5.40;;;3.17;;
47772;SDS011;33534;51.028;13.716;2023-05-29T08:26:39;7.90;;;3.38;;
47772;SDS011;33534;51.028;13.716;2023-05-29T08:29:05;8.48;;;3.50;;
47772;SDS011;33534;51.028;13.716;2023-05-29T08:31:31;3.90;;;3.15;;
47772;SDS011;33534;51.028;13.716;2023-05-29T08:33:57;8.63;;;3.55;;
47772;SDS011;33534;51.028;13.716;2023-05-29T08:36:22;5.97;;;3.80;;
47772;SDS011;33534;51.028;13.716;2023-05-29T08:38:49;8.73;;;3.78;;
47772;SDS011;33534;51.028;13.716;2023-05-29T08:41:25;7.82;;;3.80;;
47772;SDS011;33534;51.028;13.716;2023-05-29T08:43:52;7.40;;;4.03;;
47772;SDS011;33534;51.028;13.716;2023-05-29T08:46:18;7.43;;;4.18;;
47772;SDS011;33534;51.028;13.716;2023-05-29T08:48:47;6.43;;;4.10;;
47772;SDS011;33534;51.028;13.716;2023-05-29T08:51:15;5.55;;;3.58;;
47772;SDS011;33534;51.028;13.716;2023-05-29T08:53:45;4.95;;;3.38;;
47772;SDS011;33534;51.028;13.716;2023-05-29T08:56:11;6.22;;;3.90;;
47772;SDS011;33534;51.028;13.716;2023-05-29T08:58:37;7.07;;;3.38;;
47772;SDS011;33534;51.028;13.716;2023-05-29T09:01:03;6.97;;;3.22;;
47772;SDS011;33534;51.028;13.716;2023-05-29T09:03:29;7.85;;;2.83;;
47772;SDS011;33534;51.028;13.716;2023-05-29T09:05:58;4.40;;;2.83;;
47772;SDS011;33534;51.028;13.716;2023-05-29T09:08:25;5.90;;;3.10;;
47772;SDS011;33534;51.028;13.716;2023-05-29T09:10:53;7.57;;;3.15;;
47772;SDS011;33534;51.028;13.716;2023-05-29T09:13:20;5.53;;;2.70;;
47772;SDS011;33534;51.028;13.716;2023-05-29T09:15:45;6.65;;;3.15;;
47772;SDS011;33534;51.028;13.716;2023-05-29T09:18:11;6.22;;;3.08;;
47772;SDS011;33534;51.028;13.716;2023-05-29T09:20:37;4.57;;;3.00;;
47772;SDS011;33534;51.028;13.716;2023-05-29T09:23:04;4.97;;;2.75;;
47772;SDS011;33534;51.028;13.716;2023-05-29T09:25:31;4.72;;;2.72;;
47772;SDS011;33534;51.028;13.716;2023-05-29T09:27:59;6.85;;;2.53;;
47772;SDS011;33534;51.028;13.716;2023-05-29T09:30:45;9.73;;;3.10;;
47772;SDS011;33534;51.028;13.716;2023-05-29T09:33:15;3.88;;;2.75;;
47772;SDS011;33534;51.028;13.716;2023-05-29T09:35:45;5.03;;;2.60;;
47772;SDS011;33534;51.028;13.716;2023-05-29T09:38:12;5.07;;;2.92;;
47772;SDS011;33534;51.028;13.716;2023-05-29T09:40:40;5.18;;;2.40;;
47772;SDS011;33534;51.028;13.716;2023-05-29T09:43:10;7.30;;;2.42;;
47772;SDS011;33534;51.028;13.716;2023-05-29T09:45:37;4.78;;;2.33;;
47772;SDS011;33534;51.028;13.716;2023-05-29T09:48:04;4.78;;;2.47;;
47772;SDS011;33534;51.028;13.716;2023-05-29T09:50:36;7.00;;;2.90;;
47772;SDS011;33534;51.028;13.716;2023-05-29T09:53:02;4.18;;;2.63;;
47772;SDS011;33534;51.028;13.716;2023-05-29T09:55:28;3.08;;;2.55;;
47772;SDS011;33534;51.028;13.716;2023-05-29T09:57:57;4.28;;;2.10;;
47772;SDS011;33534;51.028;13.716;2023-05-29T10:00:23;8.00;;;2.78;;
47772;SDS011;33534;51.028;13.716;2023-05-29T10:02:49;4.95;;;2.65;;
47772;SDS011;33534;51.028;13.716;2023-05-29T10:05:15;7.32;;;2.58;;
47772;SDS011;33534;51.028;13.716;2023-05-29T10:07:46;5.32;;;2.40;;
47772;SDS011;33534;51.028;13.716;2023-05-29T10:10:13;7.20;;;2.92;;
47772;SDS011;33534;51.028;13.716;2023-05-29T10:12:40;5.60;;;2.63;;
47772;SDS011;33534;51.028;13.716;2023-05-29T10:15:12;5.43;;;2.67;;
47772;SDS011;33534;51.028;13.716;2023-05-29T10:17:39;4.53;;;2.60;;
47772;SDS011;33534;51.028;13.716;2023-05-29T10:20:10;7.35;;;3.53;;
47772;SDS011;33534;51.028;13.716;2023-05-29T10:22:41;4.07;;;2.45;;
47772;SDS011;33534;51.028;13.716;2023-05-29T10:25:11;5.30;;;2.65;;
47772;SDS011;33534;51.028;13.716;2023-05-29T10:27:39;8.10;;;3.80;;
47772;SDS011;33534;51.028;13.716;2023-05-29T10:32:56;4.63;;;3.03;;
47772;SDS011;33534;51.028;13.716;2023-05-29T10:35:37;4.07;;;2.88;;
47772;SDS011;33534;51.028;13.716;2023-05-29T10:38:10;5.35;;;2.70;;
47772;SDS011;33534;51.028;13.716;2023-05-29T10:43:03;4.47;;;3.03;;
47772;SDS011;33534;51.028;13.716;2023-05-29T10:50:38;7.47;;;3.10;;
47772;SDS011;33534;51.028;13.716;2023-05-29T10:53:07;9.73;;;2.97;;
47772;SDS011;33534;51.028;13.716;2023-05-29T10:55:37;7.03;;;2.63;;
47772;SDS011;33534;51.028;13.716;2023-05-29T10:58:06;7.93;;;3.20;;
47772;SDS011;33534;51.028;13.716;2023-05-29T11:00:33;5.82;;;3.00;;
47772;SDS011;33534;51.028;13.716;2023-05-29T11:03:03;6.35;;;3.10;;
47772;SDS011;33534;51.028;13.716;2023-05-29T11:05:29;9.00;;;2.67;;
47772;SDS011;33534;51.028;13.716;2023-05-29T11:07:56;6.70;;;2.95;;
47772;SDS011;33534;51.028;13.716;2023-05-29T11:10:42;4.85;;;2.85;;
47772;SDS011;33534;51.028;13.716;2023-05-29T11:13:22;6.22;;;3.13;;
47772;SDS011;33534;51.028;13.716;2023-05-29T11:16:03;5.50;;;2.97;;
47772;SDS011;33534;51.028;13.716;2023-05-29T11:18:29;5.28;;;3.00;;
47772;SDS011;33534;51.028;13.716;2023-05-29T11:21:00;7.05;;;2.60;;
47772;SDS011;33534;51.028;13.716;2023-05-29T11:23:31;6.45;;;2.85;;
47772;SDS011;33534;51.028;13.716;2023-05-29T11:25:57;10.50;;;2.72;;
47772;SDS011;33534;51.028;13.716;2023-05-29T11:28:26;2.72;;;2.40;;
47772;SDS011;33534;51.028;13.716;2023-05-29T11:30:53;5.05;;;3.10;;
47772;SDS011;33534;51.028;13.716;2023-05-29T11:33:25;7.97;;;3.05;;
47772;SDS011;33534;51.028;13.716;2023-05-29T11:35:55;5.93;;;2.95;;
47772;SDS011;33534;51.028;13.716;2023-05-29T11:38:22;6.30;;;3.13;;
47772;SDS011;33534;51.028;13.716;2023-05-29T11:40:49;6.35;;;2.95;;
47772;SDS011;33534;51.028;13.716;2023-05-29T11:43:15;7.70;;;3.20;;
47772;SDS011;33534;51.028;13.716;2023-05-29T11:45:41;6.15;;;2.95;;
47772;SDS011;33534;51.028;13.716;2023-05-29T11:48:07;6.63;;;3.08;;
47772;SDS011;33534;51.028;13.716;2023-05-29T11:50:33;6.18;;;2.92;;
47772;SDS011;33534;51.028;13.716;2023-05-29T11:53:00;4.50;;;3.08;;
47772;SDS011;33534;51.028;13.716;2023-05-29T11:55:26;8.57;;;3.63;;
47772;SDS011;33534;51.028;13.716;2023-05-29T11:57:56;6.35;;;3.20;;
47772;SDS011;33534;51.028;13.716;2023-05-29T12:00:23;8.95;;;4.90;;
47772;SDS011;33534;51.028;13.716;2023-05-29T12:02:49;8.70;;;3.50;;
47772;SDS011;33534;51.028;13.716;2023-05-29T12:05:16;8.70;;;3.50;;
47772;SDS011;33534;51.028;13.716;2023-05-29T12:07:53;6.95;;;2.85;;
47772;SDS011;33534;51.028;13.716;2023-05-29T12:10:22;3.55;;;3.00;;
47772;SDS011;33534;51.028;13.716;2023-05-29T12:12:53;4.80;;;2.60;;
47772;SDS011;33534;51.028;13.716;2023-05-29T12:15:19;5.87;;;3.07;;
47772;SDS011;33534;51.028;13.716;2023-05-29T12:17:46;3.58;;;2.65;;
47772;SDS011;33534;51.028;13.716;2023-05-29T12:20:13;4.25;;;2.90;;
47772;SDS011;33534;51.028;13.716;2023-05-29T12:22:40;6.78;;;2.97;;
47772;SDS011;33534;51.028;13.716;2023-05-29T12:25:10;7.72;;;2.78;;
47772;SDS011;33534;51.028;13.716;2023-05-29T12:27:40;7.97;;;2.67;;
47772;SDS011;33534;51.028;13.716;2023-05-29T12:30:08;5.35;;;3.10;;
47772;SDS011;33534;51.028;13.716;2023-05-29T12:32:38;6.22;;;2.97;;
47772;SDS011;33534;51.028;13.716;2023-05-29T12:37:53;4.72;;;3.00;;
47772;SDS011;33534;51.028;13.716;2023-05-29T12:40:23;4.45;;;2.60;;
47772;SDS011;33534;51.028;13.716;2023-05-29T12:42:54;4.35;;;2.55;;
47772;SDS011;33534;51.028;13.716;2023-05-29T12:45:21;6.40;;;3.03;;
47772;SDS011;33534;51.028;13.716;2023-05-29T12:47:51;4.28;;;2.75;;
47772;SDS011;33534;51.028;13.716;2023-05-29T12:53:03;5.82;;;2.90;;
47772;SDS011;33534;51.028;13.716;2023-05-29T12:55:34;5.18;;;2.90;;
47772;SDS011;33534;51.028;13.716;2023-05-29T12:58:02;8.00;;;2.60;;
47772;SDS011;33534;51.028;13.716;2023-05-29T13:00:28;5.43;;;3.10;;
47772;SDS011;33534;51.028;13.716;2023-05-29T13:02:55;5.22;;;2.95;;
47772;SDS011;33534;51.028;13.716;2023-05-29T13:05:21;7.57;;;3.08;;
47772;SDS011;33534;51.028;13.716;2023-05-29T13:07:48;6.40;;;2.95;;
47772;SDS011;33534;51.028;13.716;2023-05-29T13:10:15;7.35;;;3.35;;
47772;SDS011;33534;51.028;13.716;2023-05-29T13:12:41;7.43;;;3.17;;
47772;SDS011;33534;51.028;13.716;2023-05-29T13:15:07;3.85;;;2.90;;
47772;SDS011;33534;51.028;13.716;2023-05-29T13:20:07;5.50;;;2.83;;
47772;SDS011;33534;51.028;13.716;2023-05-29T13:22:34;5.00;;;2.78;;
47772;SDS011;33534;51.028;13.716;2023-05-29T13:25:01;6.80;;;3.03;;
47772;SDS011;33534;51.028;13.716;2023-05-29T13:27:27;3.78;;;2.80;;
47772;SDS011;33534;51.028;13.716;2023-05-29T13:29:53;6.47;;;2.80;;
47772;SDS011;33534;51.028;13.716;2023-05-29T13:32:19;3.05;;;2.58;;
47772;SDS011;33534;51.028;13.716;2023-05-29T13:34:46;5.75;;;3.10;;
47772;SDS011;33534;51.028;13.716;2023-05-29T13:37:12;4.65;;;2.55;;
47772;SDS011;33534;51.028;13.716;2023-05-29T13:39:38;3.58;;;2.83;;
47772;SDS011;33534;51.028;13.716;2023-05-29T13:42:04;5.13;;;3.10;;
47772;SDS011;33534;51.028;13.716;2023-05-29T13:44:31;8.90;;;3.00;;
47772;SDS011;33534;51.028;13.716;2023-05-29T13:46:57;5.57;;;3.28;;
47772;SDS011;33534;51.028;13.716;2023-05-29T13:49:23;6.10;;;3.38;;
47772;SDS011;33534;51.028;13.716;2023-05-29T13:51:49;5.45;;;3.03;;
47772;SDS011;33534;51.028;13.716;2023-05-29T13:54:15;5.93;;;3.15;;
47772;SDS011;33534;51.028;13.716;2023-05-29T13:56:42;8.95;;;3.50;;
47772;SDS011;33534;51.028;13.716;2023-05-29T13:59:09;5.85;;;3.40;;
47772;SDS011;33534;51.028;13.716;2023-05-29T14:01:35;4.85;;;3.25;;
47772;SDS011;33534;51.028;13.716;2023-05-29T14:04:01;5.82;;;3.22;;
47772;SDS011;33534;51.028;13.716;2023-05-29T14:06:27;5.95;;;3.08;;
47772;SDS011;33534;51.028;13.716;2023-05-29T14:08:53;10.00;;;3.10;;
47772;SDS011;33534;51.028;13.716;2023-05-29T14:11:21;5.22;;;3.10;;
47772;SDS011;33534;51.028;13.716;2023-05-29T14:13:47;5.72;;;3.53;;
47772;SDS011;33534;51.028;13.716;2023-05-29T14:16:13;4.20;;;2.70;;
47772;SDS011;33534;51.028;13.716;2023-05-29T14:18:40;4.78;;;3.13;;
47772;SDS011;33534;51.028;13.716;2023-05-29T14:21:06;5.88;;;3.20;;
47772;SDS011;33534;51.028;13.716;2023-05-29T14:23:32;5.72;;;3.10;;
47772;SDS011;33534;51.028;13.716;2023-05-29T14:25:59;5.78;;;3.15;;
47772;SDS011;33534;51.028;13.716;2023-05-29T14:28:25;8.00;;;3.47;;
47772;SDS011;33534;51.028;13.716;2023-05-29T14:30:51;6.03;;;3.72;;
47772;SDS011;33534;51.028;13.716;2023-05-29T14:33:17;5.53;;;3.00;;
47772;SDS011;33534;51.028;13.716;2023-05-29T14:35:44;4.40;;;3.00;;
47772;SDS011;33534;51.028;13.716;2023-05-29T14:38:10;5.50;;;3.20;;
47772;SDS011;33534;51.028;13.716;2023-05-29T14:40:36;6.65;;;3.45;;
47772;SDS011;33534;51.028;13.716;2023-05-29T14:43:03;9.60;;;3.30;;
47772;SDS011;33534;51.028;13.716;2023-05-29T14:45:29;4.60;;;3.40;;
47772;SDS011;33534;51.028;13.716;2023-05-29T14:47:55;4.65;;;3.00;;
47772;SDS011;33534;51.028;13.716;2023-05-29T14:50:21;8.80;;;3.47;;
47772;SDS011;33534;51.028;13.716;2023-05-29T14:52:47;8.27;;;3.50;;
47772;SDS011;33534;51.028;13.716;2023-05-29T14:55:13;6.13;;;3.53;;